Home > Products > Valid Products > TAF

000
FTUS42 KKEY 201700
TAFEYW
TAF
KEYW 201734Z 2018/2118 33010G16KT P6SM SCT035
     FM210000 34008KT P6SM FEW030
     FM210900 02010KT P6SM SCT028=



000
FTUS42 KKEY 201500 AAA
TAFEYW
TAF AMD
KEYW 201505Z 2015/2112 30010KT P6SM SCT040
     FM210900 02008KT P6SM BKN030=



000
FTUS42 KKEY 201100
TAFEYW
TAF
KEYW 201137Z 2012/2112 30010KT P6SM BKN035
      TEMPO 2012/2013 OVC035
     FM201800 32009KT P6SM SCT040
     FM210900 02008KT P6SM BKN030=



000
FTUS42 KKEY 200800 AAA
TAFEYW
TAF AMD
KEYW 200834Z 2009/2106 31008KT P6SM BKN035
     FM201600 32008KT P6SM SCT035=



000
FTUS42 KKEY 200500
TAFEYW
TAF
KEYW 200522Z 2006/2106 32010KT P6SM SCT030=



000
FTUS42 KKEY 192300
TAFEYW
TAF
KEYW 192320Z 2000/2024 32013G19KT P6SM FEW022 SCT030 BKN040
     FM200600 32009KT P6SM SCT024=



000
FTUS42 KKEY 192200 AAB
TAFEYW
TAF AMD
KEYW 192207Z 1922/2018 32013G19KT P6SM FEW022 SCT030 BKN040
     FM200600 32009KT P6SM SCT024=



000
FTUS42 KKEY 192100 AAA
TAFEYW
TAF AMD
KEYW 192132Z 1922/2018 32011KT P6SM FEW022 BKN030
     FM192300 33012G17KT P6SM SCT020
      TEMPO 1923/2003 BKN020=



000
FTUS42 KKEY 191700
TAFEYW
TAF
KEYW 191736Z 1918/2018 32010KT P6SM FEW017
     FM192300 33012G17KT P6SM SCT020
      TEMPO 1923/2003 BKN020=



000
FTUS42 KKEY 191500 AAC
TAFEYW
TAF AMD
KEYW 191509Z 1915/2012 33013KT P6SM FEW017
     FM191900 33013G17KT P6SM SCT018
      TEMPO 1919/1923 BKN018=



000
FTUS42 KKEY 191300 AAB
TAFEYW
TAF AMD
KEYW 191314Z 1913/2012 30010KT P6SM SCT012
      TEMPO 1913/1915 BKN012
     FM191900 30009G15KT P6SM SCT018
      TEMPO 1919/1923 BKN018=



000
FTUS42 KKEY 191200 AAA
TAFEYW
TAF AMD
KEYW 191229Z 1912/2012 29008KT P6SM FEW015
     FM191600 29010KT P6SM SCT018
     FM191900 30009G15KT P6SM SCT018
      TEMPO 1919/1923 BKN018=



000
FTUS42 KKEY 191100
TAFEYW
TAF
KEYW 191139Z 1912/2012 27008KT P6SM FEW070
     FM191600 28010KT P6SM SCT020
     FM191900 30009G15KT P6SM SCT020
      TEMPO 1919/1923 BKN018=



000
FTUS42 KKEY 190800 AAA
TAFEYW
TAF AMD
KEYW 190833Z 1909/2006 23009KT P6SM VCSH SCT020 BKN090
     FM191500 28012KT P6SM SCT025
      TEMPO 1915/1919 BKN025
     FM192100 30011KT P6SM SCT025=



000
FTUS42 KKEY 190500
TAFEYW
TAF
KEYW 190522Z 1906/2006 19008KT P6SM VCSH SCT050
     FM190800 23009KT P6SM VCTS SCT020CB BKN090
      TEMPO 1908/1912 VRB15G25KT 3SM TSRA BKN020CB OVC090
     FM191500 28012KT P6SM BKN025
     FM192100 30011KT P6SM SCT025=



000
FTUS42 KKEY 182300
TAFEYW
TAF
KEYW 182331Z 1900/1924 16008KT P6SM FEW022 BKN090
     FM190600 19008KT P6SM VCSH SCT020 BKN090
     FM190800 23009KT P6SM VCTS SCT020CB BKN090
      TEMPO 1908/1912 VRB15G25KT 3SM TSRA BKN020CB OVC090
     FM191500 28012KT P6SM BKN025
     FM192100 30011KT P6SM SCT025=



000
FTUS42 KKEY 181700
TAFEYW
TAF
KEYW 181739Z 1818/1918 17011KT P6SM FEW025
     FM190000 18006KT P6SM FEW023
     FM190500 19006KT P6SM VCSH SCT020 BKN070 OVC100
     FM190700 27010KT P6SM VCTS FEW020 SCT050CB OVC100 PROB30
      1907/1911 VRB15G25KT 2SM TSRA BKN015CB OVC045
     FM191400 31014KT P6SM BKN018=



000
FTUS42 KKEY 181400 AAA
TAFEYW
TAF AMD
KEYW 181458Z 1815/1912 15012G17KT P6SM FEW025
     FM190300 18006KT P6SM FEW023
     FM190700 27010KT P6SM FEW020 SCT050 OVC100 PROB30 1907/1912
      VRB15G25KT 2SM TSRA BKN015CB OVC045=



000
FTUS42 KKEY 181100
TAFEYW
TAF
KEYW 181140Z 1812/1912 13012G19KT P6SM SCT025 BKN250
      TEMPO 1813/1815 BKN020
     FM182200 16008KT P6SM BKN050 PROB30 1906/1912 VRB15G25KT 2SM
      TSRA BKN015CB=



000
FTUS42 KKEY 180800 AAA
TAFEYW
TAF AMD
KEYW 180840Z 1809/1906 11015G19KT P6SM SCT020
     FM180900 13014G19KT P6SM BKN250=



000
FTUS42 KKEY 180500
TAFEYW
TAF
KEYW 180537Z 1806/1906 10013G19KT P6SM SCT018
     FM180900 13014G19KT P6SM BKN250=



000
FTUS42 KKEY 172300
TAFEYW
TAF
KEYW 172339Z 1800/1824 09013G19KT P6SM VCSH SCT018
     FM180900 13014G19KT P6SM BKN250=



    US Dept of Commerce
    National Oceanic and Atmospheric Administration
    National Weather Service
    1325 East West Highway
    Silver Spring, MD 20910
    Page Author: NWS Internet Services Team
Disclaimer
Information Quality
Credits
Glossary
Privacy Policy
Freedom of Information Act (FOIA)
About Us
Career Opportunities